Time;durP1;ratioP1;P1;durP2;ratioP2;P2;SDS_P1;SDS_P2;PMS_P1;PMS_P2;Temp;Humidity;BMP_temperature;BMP_pressure;BME280_temperature;BME280_humidity;BME280_pressure;Samples;Min_cycle;Max_cycle;Signal;HPM_P1;HPM_P2
2024/01/23 00:01:11;;;;;;;21.87;3.40;;;6.70;99.90;;;;;;5073216;28;20505;-90
2024/01/23 00:03:37;;;;;;;18.10;2.57;;;6.60;99.90;;;;;;5071659;28;20909;-90
2024/01/23 00:06:03;;;;;;;18.00;3.40;;;6.40;99.90;;;;;;5072243;28;20484;-93
2024/01/23 00:08:29;;;;;;;22.30;2.92;;;6.50;99.90;;;;;;5071967;28;20405;-92
2024/01/23 00:10:56;;;;;;;19.75;2.90;;;6.40;99.90;;;;;;5071654;28;20402;-94
2024/01/23 00:13:22;;;;;;;19.63;3.03;;;6.20;99.90;;;;;;5071673;28;20394;-91
2024/01/23 00:15:47;;;;;;;24.10;3.50;;;6.30;99.90;;;;;;5071301;28;20405;-89
2024/01/23 00:18:13;;;;;;;18.40;2.93;;;6.50;99.90;;;;;;5071573;28;20889;-87
2024/01/23 00:20:39;;;;;;;23.77;2.77;;;6.50;99.90;;;;;;5089260;28;20501;-88
2024/01/23 00:23:04;;;;;;;22.83;3.83;;;6.60;99.90;;;;;;5071551;28;20406;-90
2024/01/23 00:25:30;;;;;;;20.40;2.72;;;6.40;99.90;;;;;;5071490;28;20793;-94
2024/01/23 00:27:56;;;;;;;18.97;3.00;;;6.50;99.90;;;;;;5071868;28;20426;-88
2024/01/23 00:30:22;;;;;;;19.13;2.73;;;6.30;99.90;;;;;;5071922;28;20414;-88
2024/01/23 00:32:47;;;;;;;20.40;2.90;;;6.70;99.90;;;;;;5071718;28;20410;-94
2024/01/23 00:35:13;;;;;;;17.75;2.53;;;6.60;99.90;;;;;;5088289;28;20932;-92
2024/01/23 00:37:38;;;;;;;18.50;2.93;;;7.20;99.90;;;;;;5071469;28;20777;-93
2024/01/23 00:40:11;;;;;;;19.77;3.17;;;6.60;99.90;;;;;;5071678;28;20493;-89
2024/01/23 00:42:36;;;;;;;21.25;2.72;;;6.70;99.90;;;;;;5051222;28;20439;-93
2024/01/23 00:45:05;;;;;;;18.15;3.42;;;6.80;99.90;;;;;;5051469;28;20478;-90
2024/01/23 00:47:31;;;;;;;19.58;2.72;;;6.70;99.90;;;;;;5051932;28;20755;-92
2024/01/23 00:49:57;;;;;;;21.87;2.70;;;6.70;99.90;;;;;;5051071;28;20402;-89
2024/01/23 00:52:22;;;;;;;18.47;3.23;;;6.80;99.90;;;;;;5051410;28;20429;-91
2024/01/23 00:54:48;;;;;;;18.27;2.53;;;6.80;99.90;;;;;;5051285;28;20487;-90
2024/01/23 00:57:14;;;;;;;18.38;3.05;;;6.80;99.90;;;;;;5050201;28;20418;-91
2024/01/23 00:59:42;;;;;;;20.70;3.30;;;6.50;99.90;;;;;;5079798;28;20493;-93
2024/01/23 01:02:08;;;;;;;18.88;3.22;;;6.60;99.90;;;;;;5071028;28;20850;-91
2024/01/23 01:04:34;;;;;;;18.67;2.83;;;6.60;99.90;;;;;;5070490;28;20398;-92
2024/01/23 01:06:59;;;;;;;20.53;3.00;;;6.50;99.90;;;;;;5070931;28;20402;-93
2024/01/23 01:09:28;;;;;;;19.80;3.47;;;6.70;99.90;;;;;;5070641;28;20425;-91
2024/01/23 01:11:53;;;;;;;20.95;3.38;;;6.50;99.90;;;;;;5070587;28;20503;-89
2024/01/23 01:14:19;;;;;;;22.50;3.23;;;6.40;99.90;;;;;;5071294;28;20410;-87
2024/01/23 01:16:45;;;;;;;24.10;4.00;;;6.50;99.90;;;;;;5069704;28;20406;-88
2024/01/23 01:19:10;;;;;;;20.35;3.15;;;6.30;99.90;;;;;;5070321;28;20441;-90
2024/01/23 01:21:37;;;;;;;20.98;3.38;;;6.60;99.90;;;;;;5070490;28;20399;-92
2024/01/23 01:24:03;;;;;;;21.17;2.83;;;6.30;99.90;;;;;;5070524;28;20414;-93
2024/01/23 01:26:28;;;;;;;24.45;3.75;;;6.20;99.90;;;;;;5069832;28;20941;-88
2024/01/23 01:28:54;;;;;;;19.33;3.33;;;6.20;99.90;;;;;;5069933;28;20526;-88
2024/01/23 01:31:19;;;;;;;21.67;2.93;;;6.20;99.90;;;;;;5069924;28;20868;-89
2024/01/23 01:33:45;;;;;;;20.27;3.45;;;6.20;99.90;;;;;;5070143;28;20398;-89
2024/01/23 01:36:11;;;;;;;18.70;3.43;;;6.10;99.90;;;;;;5070061;28;20726;-92
2024/01/23 01:38:36;;;;;;;22.27;3.13;;;6.10;99.90;;;;;;5069972;28;20413;-90
2024/01/23 01:41:03;;;;;;;22.42;3.47;;;6.00;99.90;;;;;;5070047;28;20487;-87
2024/01/23 01:43:31;;;;;;;19.17;2.70;;;6.00;99.90;;;;;;5069610;28;20893;-91
2024/01/23 01:46:18;;;;;;;23.97;4.20;;;6.00;99.90;;;;;;5086049;28;20425;-88
2024/01/23 01:48:46;;;;;;;21.83;3.10;;;6.00;99.90;;;;;;5070484;28;20406;-88
2024/01/23 01:51:13;;;;;;;22.25;3.10;;;6.00;99.90;;;;;;5086747;28;20402;-89
2024/01/23 01:53:40;;;;;;;25.23;3.30;;;6.00;99.90;;;;;;5086820;28;20494;-95
2024/01/23 01:56:06;;;;;;;24.20;3.33;;;5.90;99.90;;;;;;5069503;28;20401;-88
2024/01/23 01:58:32;;;;;;;22.30;3.08;;;5.90;99.90;;;;;;5070040;28;20798;-89
2024/01/23 02:01:02;;;;;;;19.30;3.28;;;6.20;99.90;;;;;;5068585;28;20417;-86
2024/01/23 02:03:29;;;;;;;23.90;3.78;;;6.00;99.90;;;;;;5070091;28;20406;-92
2024/01/23 02:05:58;;;;;;;24.45;3.22;;;6.00;99.90;;;;;;5069976;28;20452;-88
2024/01/23 02:08:24;;;;;;;23.50;3.78;;;5.80;99.90;;;;;;5070435;28;20726;-87
2024/01/23 02:10:50;;;;;;;21.05;3.35;;;6.00;99.90;;;;;;5090224;28;20393;-93
2024/01/23 02:13:16;;;;;;;23.88;3.80;;;6.10;99.90;;;;;;5074504;28;20421;-94
2024/01/23 02:15:41;;;;;;;24.85;3.55;;;6.00;99.90;;;;;;5073330;28;20442;-91
2024/01/23 02:18:07;;;;;;;22.33;3.33;;;6.00;99.90;;;;;;5073280;28;20496;-87
2024/01/23 02:20:32;;;;;;;27.80;4.00;;;6.00;99.90;;;;;;5073603;28;20486;-88
2024/01/23 02:22:58;;;;;;;19.83;3.65;;;5.90;99.90;;;;;;5072788;28;20489;-87
2024/01/23 02:25:24;;;;;;;30.17;3.90;;;6.00;99.90;;;;;;5073098;28;20436;-91
2024/01/23 02:27:49;;;;;;;29.17;4.10;;;6.00;99.90;;;;;;5072884;28;20405;-88
2024/01/23 02:30:15;;;;;;;24.10;3.97;;;6.00;99.90;;;;;;5072532;28;20398;-91
2024/01/23 02:32:44;;;;;;;24.77;3.80;;;6.10;99.90;;;;;;5073621;28;20915;-87
2024/01/23 02:35:10;;;;;;;26.43;3.83;;;6.10;99.90;;;;;;5072711;28;20406;-88
2024/01/23 02:37:36;;;;;;;20.67;3.67;;;6.20;99.90;;;;;;5072910;28;20762;-89
2024/01/23 02:40:02;;;;;;;23.15;3.92;;;6.20;99.90;;;;;;5072776;28;20412;-86
2024/01/23 02:42:28;;;;;;;24.58;3.85;;;6.30;99.90;;;;;;5072362;28;20414;-92
2024/01/23 02:44:53;;;;;;;26.63;4.50;;;6.50;99.90;;;;;;5074389;28;20397;-93
2024/01/23 02:47:20;;;;;;;29.80;4.73;;;6.30;99.90;;;;;;5072650;28;20406;-91
2024/01/23 02:49:46;;;;;;;26.05;4.03;;;6.40;99.90;;;;;;5073062;28;20402;-91
2024/01/23 02:52:12;;;;;;;26.27;4.07;;;6.60;99.90;;;;;;5073463;28;20908;-90
2024/01/23 02:54:37;;;;;;;24.47;3.83;;;6.40;99.90;;;;;;5074635;28;20764;-92
2024/01/23 02:57:03;;;;;;;26.50;3.75;;;6.40;99.90;;;;;;5072842;28;20436;-89
2024/01/23 02:59:29;;;;;;;27.63;4.05;;;6.40;99.90;;;;;;5073512;28;20401;-87
2024/01/23 03:01:54;;;;;;;25.40;4.03;;;6.50;99.90;;;;;;5072826;28;20439;-91
2024/01/23 03:04:20;;;;;;;24.70;3.90;;;6.50;99.90;;;;;;5085904;28;20411;-88
2024/01/23 03:06:46;;;;;;;26.67;4.18;;;6.50;99.90;;;;;;5072158;28;20804;-89
2024/01/23 03:09:13;;;;;;;26.13;4.10;;;6.50;99.90;;;;;;5072469;28;20486;-91
2024/01/23 03:11:39;;;;;;;22.88;3.55;;;6.50;99.90;;;;;;5072927;28;20394;-90
2024/01/23 03:14:05;;;;;;;23.85;3.53;;;6.50;99.90;;;;;;5072312;28;20428;-94
2024/01/23 03:16:31;;;;;;;26.48;3.97;;;6.50;99.90;;;;;;5072930;28;20402;-91
2024/01/23 03:18:57;;;;;;;26.40;4.72;;;6.50;99.90;;;;;;5072414;28;20436;-90
2024/01/23 03:21:22;;;;;;;24.50;4.28;;;6.50;99.90;;;;;;5071529;28;20409;-90
2024/01/23 03:23:48;;;;;;;22.73;4.03;;;6.70;99.90;;;;;;5072507;28;21153;-91
2024/01/23 03:26:14;;;;;;;27.08;4.18;;;6.70;99.90;;;;;;5072357;28;20428;-90
2024/01/23 03:28:39;;;;;;;27.40;3.97;;;6.70;99.90;;;;;;5073285;28;20397;-92
2024/01/23 03:31:05;;;;;;;24.47;4.03;;;6.70;99.90;;;;;;5072727;28;20974;-88
2024/01/23 03:33:32;;;;;;;28.07;4.90;;;7.00;99.90;;;;;;5072626;28;20406;-88
2024/01/23 03:35:57;;;;;;;26.75;3.70;;;6.80;99.90;;;;;;5088429;28;20465;-89
2024/01/23 03:38:23;;;;;;;26.05;4.85;;;6.80;99.90;;;;;;5071640;28;20430;-94
2024/01/23 03:40:49;;;;;;;29.63;4.53;;;7.00;99.90;;;;;;5072504;28;20398;-91
2024/01/23 03:43:14;;;;;;;26.13;4.33;;;6.80;99.90;;;;;;5071978;28;20444;-93
2024/01/23 03:45:40;;;;;;;26.33;4.40;;;6.80;99.90;;;;;;5088941;28;20437;-89
2024/01/23 03:48:06;;;;;;;26.48;4.32;;;6.90;99.90;;;;;;5071904;28;20410;-94
2024/01/23 03:50:32;;;;;;;27.05;4.55;;;6.80;99.90;;;;;;5089662;28;20399;-90
2024/01/23 03:52:58;;;;;;;29.73;4.65;;;7.00;99.90;;;;;;5071244;28;20406;-94
2024/01/23 03:55:25;;;;;;;27.23;4.70;;;6.90;99.90;;;;;;5072478;28;20394;-91
2024/01/23 03:57:51;;;;;;;31.02;5.03;;;7.00;99.90;;;;;;5071555;28;20409;-93
2024/01/23 04:00:18;;;;;;;28.50;5.05;;;7.00;99.90;;;;;;5071847;28;20405;-89
2024/01/23 04:02:43;;;;;;;31.00;5.00;;;7.00;99.90;;;;;;5071842;28;20405;-91
2024/01/23 04:05:10;;;;;;;26.50;4.13;;;7.00;99.90;;;;;;5071835;28;20516;-95
2024/01/23 04:07:35;;;;;;;23.73;4.75;;;7.00;99.90;;;;;;5072295;28;20847;-91
2024/01/23 04:10:02;;;;;;;23.65;4.65;;;7.00;99.90;;;;;;5072295;28;20398;-93
2024/01/23 04:12:27;;;;;;;25.93;4.27;;;7.00;99.90;;;;;;5072737;28;20910;-92
2024/01/23 04:14:58;;;;;;;29.13;4.97;;;7.00;99.90;;;;;;5072493;28;20390;-95
2024/01/23 04:17:24;;;;;;;30.17;5.40;;;7.10;99.90;;;;;;5072823;28;20400;-93
2024/01/23 04:19:49;;;;;;;30.10;5.10;;;7.10;99.90;;;;;;5072096;28;20578;-94
2024/01/23 04:22:15;;;;;;;30.33;5.07;;;7.10;99.90;;;;;;5071761;28;20893;-93
2024/01/23 04:24:41;;;;;;;28.60;5.18;;;7.10;99.90;;;;;;5072442;28;20413;-92
2024/01/23 04:27:10;;;;;;;29.07;4.57;;;7.20;99.90;;;;;;5072079;28;20544;-94
2024/01/23 04:29:36;;;;;;;31.55;5.22;;;7.10;99.90;;;;;;5055629;28;20413;-92
2024/01/23 04:32:01;;;;;;;31.48;5.35;;;7.30;99.90;;;;;;5071711;28;20881;-92
2024/01/23 04:34:27;;;;;;;30.43;5.27;;;7.20;99.90;;;;;;5071980;28;20413;-93
2024/01/23 04:36:52;;;;;;;33.37;5.87;;;7.10;99.90;;;;;;5071690;28;20394;-90
2024/01/23 04:39:18;;;;;;;28.05;4.57;;;7.20;99.90;;;;;;5070978;28;20949;-91
2024/01/23 04:41:44;;;;;;;28.63;5.10;;;7.20;99.90;;;;;;5072054;28;20402;-96
2024/01/23 04:44:10;;;;;;;31.58;4.95;;;7.20;99.90;;;;;;5087889;28;20930;-91
2024/01/23 04:46:36;;;;;;;33.63;5.45;;;7.20;99.90;;;;;;5072154;28;20426;-94
2024/01/23 04:49:02;;;;;;;28.65;5.25;;;7.30;99.90;;;;;;5070935;28;20410;-92
2024/01/23 04:51:29;;;;;;;31.65;5.80;;;7.30;99.90;;;;;;5071412;28;20538;-96
2024/01/23 04:53:56;;;;;;;30.90;4.85;;;7.30;99.90;;;;;;5054805;28;20410;-92
2024/01/23 04:56:22;;;;;;;28.08;5.05;;;7.40;99.90;;;;;;5087857;28;20421;-91
2024/01/23 04:58:48;;;;;;;30.85;4.53;;;7.30;99.90;;;;;;5071688;28;20402;-93
2024/01/23 05:01:20;;;;;;;27.05;4.03;;;7.10;99.90;;;;;;5070587;28;20481;-93
2024/01/23 05:03:46;;;;;;;28.05;5.38;;;7.20;99.90;;;;;;5072215;28;20420;-92
2024/01/23 05:06:12;;;;;;;30.13;4.70;;;7.10;99.90;;;;;;5070686;28;20430;-93
2024/01/23 05:08:38;;;;;;;28.43;4.63;;;7.00;99.90;;;;;;5071666;28;20401;-90
2024/01/23 05:11:03;;;;;;;26.73;4.03;;;7.10;99.90;;;;;;5070915;28;20406;-92
2024/01/23 05:13:29;;;;;;;33.20;5.53;;;7.20;99.90;;;;;;5071592;28;20405;-92
2024/01/23 05:15:55;;;;;;;29.48;5.07;;;7.00;99.90;;;;;;5070660;28;20394;-94
2024/01/23 05:18:20;;;;;;;30.80;5.17;;;7.00;99.90;;;;;;5070618;28;20398;-89
2024/01/23 05:20:46;;;;;;;32.17;5.63;;;7.20;99.90;;;;;;5070095;28;20402;-90
2024/01/23 05:23:12;;;;;;;29.90;5.75;;;7.00;99.90;;;;;;5069980;28;20584;-95
2024/01/23 05:25:38;;;;;;;34.28;5.70;;;7.00;99.90;;;;;;5071322;28;20430;-90
2024/01/23 05:28:04;;;;;;;32.08;5.88;;;6.90;99.90;;;;;;5070137;28;20394;-91
2024/01/23 05:30:32;;;;;;;34.83;5.45;;;6.70;99.90;;;;;;5070805;28;20496;-90
2024/01/23 05:32:58;;;;;;;33.47;5.80;;;6.60;99.90;;;;;;5070113;28;20799;-89
2024/01/23 05:35:23;;;;;;;35.88;6.35;;;6.70;99.90;;;;;;5070328;28;20463;-90
2024/01/23 05:37:49;;;;;;;31.33;5.90;;;6.30;99.90;;;;;;5069894;28;20398;-89
2024/01/23 05:40:15;;;;;;;35.27;5.57;;;6.50;99.90;;;;;;5086283;28;20431;-90
2024/01/23 05:42:40;;;;;;;30.65;5.80;;;6.40;99.90;;;;;;5069820;28;20397;-94
2024/01/23 05:45:07;;;;;;;35.92;6.18;;;6.40;99.90;;;;;;5084965;28;20502;-88
2024/01/23 05:47:32;;;;;;;35.42;6.47;;;6.30;99.90;;;;;;5087685;28;20425;-91
2024/01/23 05:49:59;;;;;;;36.53;6.68;;;6.30;99.90;;;;;;5070134;28;20881;-93
2024/01/23 05:52:25;;;;;;;32.33;6.10;;;6.30;99.90;;;;;;5069892;28;20395;-93
2024/01/23 05:54:51;;;;;;;35.58;6.93;;;6.20;99.90;;;;;;5070319;28;20402;-90
2024/01/23 05:57:17;;;;;;;33.15;6.10;;;6.30;99.90;;;;;;5069855;28;20413;-87
2024/01/23 05:59:42;;;;;;;42.20;6.97;;;6.30;99.90;;;;;;5086704;28;20414;-91
2024/01/23 06:02:08;;;;;;;36.70;6.60;;;6.20;99.90;;;;;;5069197;28;20390;-89
2024/01/23 06:04:35;;;;;;;38.47;6.35;;;6.20;99.90;;;;;;5069414;28;20412;-86
2024/01/23 06:07:00;;;;;;;35.50;6.30;;;6.20;99.90;;;;;;5069238;28;20902;-89
2024/01/23 06:09:29;;;;;;;39.53;6.17;;;6.10;99.90;;;;;;5068412;28;20505;-87
2024/01/23 06:11:55;;;;;;;37.65;6.53;;;6.10;99.90;;;;;;5066076;28;20427;-88
2024/01/23 06:14:21;;;;;;;39.22;6.78;;;6.10;99.90;;;;;;5055456;28;20398;-91
2024/01/23 06:16:46;;;;;;;36.95;6.07;;;6.30;99.90;;;;;;5068876;28;20418;-90
2024/01/23 06:19:12;;;;;;;37.00;6.25;;;6.20;99.90;;;;;;5068879;28;20932;-93
2024/01/23 06:21:38;;;;;;;40.33;6.73;;;6.20;99.90;;;;;;5070778;28;20485;-92
2024/01/23 06:24:04;;;;;;;39.47;6.27;;;6.00;99.90;;;;;;5085713;28;20413;-88
2024/01/23 06:26:32;;;;;;;38.47;6.88;;;6.00;99.90;;;;;;5068684;28;20457;-89
2024/01/23 06:28:58;;;;;;;34.13;6.40;;;6.10;99.90;;;;;;5084937;28;20486;-88
2024/01/23 06:31:26;;;;;;;40.17;6.97;;;6.10;99.90;;;;;;5068600;28;20437;-89
2024/01/23 06:33:55;;;;;;;39.53;6.03;;;6.00;99.90;;;;;;5068874;28;20410;-89
2024/01/23 06:36:20;;;;;;;36.95;6.05;;;5.90;99.90;;;;;;5069164;28;20415;-89
2024/01/23 06:38:46;;;;;;;42.13;6.60;;;5.90;99.90;;;;;;5069818;28;20413;-89
2024/01/23 06:41:14;;;;;;;35.30;6.78;;;6.10;99.90;;;;;;5069588;28;20425;-93
2024/01/23 06:43:40;;;;;;;37.97;6.32;;;5.90;99.90;;;;;;5086181;28;20408;-92
2024/01/23 06:46:06;;;;;;;39.23;5.80;;;5.70;99.90;;;;;;5069667;28;20936;-91
2024/01/23 06:48:32;;;;;;;39.28;6.55;;;5.90;99.90;;;;;;5069424;28;20406;-91
2024/01/23 06:50:58;;;;;;;41.88;7.25;;;5.90;99.90;;;;;;5086587;28;20471;-88
2024/01/23 06:53:23;;;;;;;43.97;6.30;;;5.90;99.90;;;;;;5069234;28;20795;-94
2024/01/23 06:55:49;;;;;;;36.77;6.17;;;5.90;99.90;;;;;;5087393;28;20507;-92
2024/01/23 06:58:15;;;;;;;40.43;6.33;;;6.00;99.90;;;;;;5089983;28;20402;-92
2024/01/23 07:00:41;;;;;;;39.50;6.72;;;6.10;99.90;;;;;;5073979;28;20967;-91
2024/01/23 07:03:08;;;;;;;35.63;6.63;;;5.80;99.90;;;;;;5072353;28;20414;-91
2024/01/23 07:05:35;;;;;;;44.00;6.78;;;5.80;99.90;;;;;;5072881;28;20437;-91
2024/01/23 07:08:02;;;;;;;35.08;5.82;;;5.90;99.90;;;;;;5073508;28;20426;-90
2024/01/23 07:10:31;;;;;;;39.58;6.53;;;5.80;99.90;;;;;;5073845;28;20914;-91
2024/01/23 07:13:03;;;;;;;42.75;6.30;;;6.10;99.90;;;;;;5072695;28;20402;-93
2024/01/23 07:15:29;;;;;;;40.35;7.15;;;5.80;99.90;;;;;;5088886;28;20394;-90
2024/01/23 07:17:55;;;;;;;36.05;6.07;;;5.60;99.90;;;;;;5090040;28;20390;-90
2024/01/23 07:20:20;;;;;;;37.67;7.00;;;5.70;99.90;;;;;;5072572;28;20485;-91
2024/01/23 07:22:46;;;;;;;36.58;6.47;;;5.70;99.90;;;;;;5072186;28;20958;-88
2024/01/23 07:25:12;;;;;;;40.55;6.43;;;5.60;99.90;;;;;;5072014;28;20457;-89
2024/01/23 07:27:37;;;;;;;45.17;7.38;;;5.80;99.90;;;;;;5072288;28;20913;-89
2024/01/23 07:30:04;;;;;;;43.63;8.40;;;5.80;99.90;;;;;;5072217;28;20453;-87
2024/01/23 07:32:30;;;;;;;43.55;7.82;;;5.60;99.90;;;;;;5072039;28;20417;-89
2024/01/23 07:34:55;;;;;;;42.28;6.63;;;5.70;99.90;;;;;;5072393;28;20390;-89
2024/01/23 07:37:21;;;;;;;46.25;8.07;;;5.60;99.90;;;;;;5071725;28;20402;-89
2024/01/23 07:39:49;;;;;;;41.03;7.77;;;5.60;99.90;;;;;;5103026;28;20396;-93
2024/01/23 07:42:14;;;;;;;45.42;6.82;;;5.60;99.90;;;;;;5092064;28;20423;-90
2024/01/23 07:44:42;;;;;;;35.83;6.80;;;5.80;99.90;;;;;;5092754;28;20400;-88
2024/01/23 07:47:08;;;;;;;38.20;6.63;;;5.50;99.90;;;;;;5091946;28;20791;-89
2024/01/23 07:49:34;;;;;;;45.30;7.93;;;5.40;99.90;;;;;;5087313;28;20406;-88
2024/01/23 07:51:59;;;;;;;37.47;6.07;;;5.70;99.90;;;;;;5088488;28;20409;-88
2024/01/23 07:54:25;;;;;;;43.75;6.82;;;5.50;99.90;;;;;;5088158;28;20402;-92
2024/01/23 07:56:51;;;;;;;49.30;7.38;;;5.60;99.90;;;;;;5071828;28;20485;-87
2024/01/23 07:59:17;;;;;;;38.87;5.93;;;5.60;99.90;;;;;;5088207;28;20499;-90
2024/01/23 08:01:43;;;;;;;42.80;7.28;;;5.70;99.90;;;;;;5071579;28;20476;-90
2024/01/23 08:04:10;;;;;;;44.72;7.63;;;5.70;99.90;;;;;;5070976;28;20398;-89
2024/01/23 08:06:36;;;;;;;44.00;6.72;;;5.50;99.90;;;;;;5071009;28;20407;-91
2024/01/23 08:09:04;;;;;;;45.58;7.03;;;5.60;99.90;;;;;;5069399;28;20522;-87
2024/01/23 08:11:31;;;;;;;48.17;7.00;;;5.50;99.90;;;;;;5087520;28;20513;-93
2024/01/23 08:13:56;;;;;;;41.50;6.85;;;5.40;99.90;;;;;;5070748;28;20497;-87
2024/01/23 08:16:22;;;;;;;43.28;6.50;;;5.40;99.90;;;;;;5070958;28;20481;-89
2024/01/23 08:18:48;;;;;;;37.78;5.97;;;5.60;99.90;;;;;;5071321;28;20482;-90
2024/01/23 08:21:14;;;;;;;40.93;6.90;;;5.60;99.90;;;;;;5070061;28;20403;-88
2024/01/23 08:23:39;;;;;;;40.58;7.50;;;5.60;99.90;;;;;;5070367;28;20417;-89
2024/01/23 08:26:05;;;;;;;41.72;6.63;;;5.60;99.90;;;;;;5086385;28;20425;-86
2024/01/23 08:28:30;;;;;;;37.10;5.83;;;5.60;99.90;;;;;;5070514;28;20398;-88
2024/01/23 08:31:02;;;;;;;45.30;7.32;;;5.60;99.90;;;;;;5070261;28;20409;-87
2024/01/23 08:33:28;;;;;;;41.13;6.93;;;5.60;99.90;;;;;;5069695;28;20893;-87
2024/01/23 08:35:54;;;;;;;40.90;7.57;;;5.60;99.90;;;;;;5070407;28;20405;-89
2024/01/23 08:38:21;;;;;;;38.60;6.37;;;5.70;99.90;;;;;;5069157;28;20931;-87
2024/01/23 08:40:46;;;;;;;40.63;6.35;;;5.70;99.90;;;;;;5070539;28;20413;-87
2024/01/23 08:43:12;;;;;;;41.70;6.13;;;5.70;99.90;;;;;;5069303;28;20395;-87
2024/01/23 08:45:38;;;;;;;40.90;6.27;;;5.70;99.90;;;;;;5070134;28;20597;-88
2024/01/23 08:48:04;;;;;;;42.40;6.38;;;5.80;99.90;;;;;;5069634;28;20438;-88
2024/01/23 08:50:30;;;;;;;47.00;7.13;;;5.80;99.90;;;;;;5087328;28;20817;-87
2024/01/23 08:52:56;;;;;;;39.20;7.03;;;5.90;99.90;;;;;;5086495;28;20496;-90
2024/01/23 08:55:21;;;;;;;42.67;6.85;;;5.90;99.90;;;;;;5087237;28;20975;-87
2024/01/23 08:57:47;;;;;;;42.55;6.32;;;5.90;99.90;;;;;;5086842;28;20493;-90
2024/01/23 09:00:13;;;;;;;39.63;6.57;;;5.90;99.90;;;;;;5086369;28;20471;-87
2024/01/23 09:02:40;;;;;;;44.15;7.10;;;6.00;99.90;;;;;;5069749;28;20398;-89
2024/01/23 09:05:06;;;;;;;41.97;6.65;;;6.00;99.90;;;;;;5086906;28;20444;-90
2024/01/23 09:07:31;;;;;;;42.00;6.57;;;6.10;99.90;;;;;;5070023;28;20473;-88
2024/01/23 09:09:57;;;;;;;40.30;6.18;;;6.20;99.90;;;;;;5069855;28;20406;-89
2024/01/23 09:12:23;;;;;;;38.23;6.57;;;6.40;99.90;;;;;;5069790;28;20455;-88
2024/01/23 09:14:48;;;;;;;47.43;6.80;;;6.20;99.90;;;;;;5069503;28;20904;-89
2024/01/23 09:17:14;;;;;;;38.15;6.55;;;6.20;99.90;;;;;;5069061;28;20398;-88
2024/01/23 09:19:40;;;;;;;39.38;6.18;;;6.30;99.90;;;;;;5069474;28;20409;-89
2024/01/23 09:22:06;;;;;;;42.88;6.60;;;6.50;99.90;;;;;;5068815;28;20402;-91
2024/01/23 09:24:32;;;;;;;36.53;6.25;;;6.40;99.90;;;;;;5068767;28;20406;-88
2024/01/23 09:27:01;;;;;;;47.00;7.60;;;6.50;99.90;;;;;;5085738;28;20480;-88
2024/01/23 09:29:27;;;;;;;40.00;6.38;;;6.50;99.90;;;;;;5068969;28;20485;-90
2024/01/23 09:31:53;;;;;;;37.25;6.82;;;6.60;99.90;;;;;;5069872;28;20764;-87
2024/01/23 09:34:18;;;;;;;35.25;6.65;;;6.70;99.90;;;;;;5069667;28;20488;-89
2024/01/23 09:36:44;;;;;;;38.45;6.68;;;6.80;99.90;;;;;;5069582;28;20406;-87
2024/01/23 09:39:13;;;;;;;36.53;6.77;;;6.90;99.90;;;;;;5069078;28;20444;-94
2024/01/23 09:42:02;;;;;;;39.17;6.53;;;7.10;99.90;;;;;;5069990;28;20442;-93
2024/01/23 09:44:27;;;;;;;37.08;6.50;;;7.20;99.90;;;;;;5069609;28;20402;-91
2024/01/23 09:46:55;;;;;;;37.65;6.15;;;7.20;99.90;;;;;;5068334;28;20426;-87
2024/01/23 09:49:21;;;;;;;40.45;6.88;;;7.10;99.90;;;;;;5085532;28;20390;-87
2024/01/23 09:51:49;;;;;;;34.47;5.68;;;7.10;99.90;;;;;;5084860;28;20398;-88
2024/01/23 09:54:15;;;;;;;38.20;6.00;;;7.10;99.90;;;;;;5068372;28;20493;-88
2024/01/23 09:56:40;;;;;;;33.90;6.35;;;7.20;99.90;;;;;;5069304;28;20477;-90
2024/01/23 09:59:09;;;;;;;35.80;6.93;;;7.40;99.90;;;;;;5085950;28;20916;-88
2024/01/23 10:01:39;;;;;;;37.70;6.30;;;7.70;99.90;;;;;;5069123;28;20442;-87
2024/01/23 10:04:05;;;;;;;35.33;6.47;;;8.00;99.90;;;;;;5068036;28;20425;-89
2024/01/23 10:06:32;;;;;;;32.63;5.55;;;8.20;99.90;;;;;;5069002;28;20789;-88
2024/01/23 10:08:57;;;;;;;33.60;6.28;;;8.40;99.90;;;;;;5068827;28;20446;-88
2024/01/23 10:11:26;;;;;;;36.20;5.72;;;8.80;99.90;;;;;;5068912;28;20406;-90
2024/01/23 10:13:56;;;;;;;33.65;5.38;;;8.70;99.90;;;;;;5069190;28;20385;-90
2024/01/23 10:16:22;;;;;;;34.85;5.93;;;8.80;99.90;;;;;;5069655;28;20409;-91
2024/01/23 10:18:49;;;;;;;35.92;6.88;;;8.90;99.90;;;;;;5068909;28;20765;-89
2024/01/23 10:21:18;;;;;;;30.45;6.18;;;9.00;99.90;;;;;;5068921;28;20528;-91
2024/01/23 10:23:44;;;;;;;32.50;6.25;;;8.90;99.90;;;;;;5086578;28;20883;-90
2024/01/23 10:26:12;;;;;;;34.23;6.00;;;8.90;99.90;;;;;;5069272;28;20438;-94
2024/01/23 10:28:38;;;;;;;37.25;6.25;;;8.70;99.90;;;;;;5069496;28;20436;-88
2024/01/23 10:31:03;;;;;;;34.90;6.27;;;8.90;99.90;;;;;;5069243;28;20406;-87
2024/01/23 10:33:30;;;;;;;31.13;5.63;;;8.90;99.90;;;;;;5073451;28;20399;-91
2024/01/23 10:35:57;;;;;;;32.90;6.35;;;8.90;99.90;;;;;;5072635;28;20394;-89
2024/01/23 10:38:23;;;;;;;33.40;6.80;;;9.00;99.90;;;;;;5072682;28;20422;-89
2024/01/23 10:40:51;;;;;;;30.42;6.13;;;9.20;99.90;;;;;;5072937;28;21032;-90
2024/01/23 10:43:17;;;;;;;30.15;5.50;;;9.30;99.90;;;;;;5071780;28;20398;-87
2024/01/23 10:45:45;;;;;;;29.80;5.95;;;9.50;99.90;;;;;;5073158;28;20421;-92
2024/01/23 10:48:11;;;;;;;36.10;6.75;;;9.30;99.90;;;;;;5072640;28;20503;-89
2024/01/23 10:50:38;;;;;;;39.00;6.75;;;9.40;99.90;;;;;;5072591;28;20406;-87
2024/01/23 10:53:06;;;;;;;33.58;6.57;;;9.50;99.90;;;;;;5089621;28;20488;-90
2024/01/23 10:55:32;;;;;;;30.63;5.30;;;9.60;99.90;;;;;;5070468;28;20531;-88
2024/01/23 10:58:21;;;;;;;29.70;5.65;;;9.70;99.90;;;;;;5070853;28;20413;-88
2024/01/23 11:00:49;;;;;;;28.75;5.07;;;9.80;99.90;;;;;;5071748;28;20896;-89
2024/01/23 11:03:16;;;;;;;31.83;5.75;;;9.70;99.90;;;;;;5072441;28;20398;-88
2024/01/23 11:05:47;;;;;;;33.60;5.80;;;9.70;99.90;;;;;;5071378;28;20508;-88
2024/01/23 11:08:22;;;;;;;26.75;5.35;;;10.20;99.90;;;;;;5071955;28;20404;-90
2024/01/23 11:10:54;;;;;;;34.60;5.40;;;10.00;99.90;;;;;;5072238;28;20438;-89
2024/01/23 11:13:37;;;;;;;26.95;5.30;;;10.10;99.90;;;;;;5071602;28;20534;-91
2024/01/23 11:16:06;;;;;;;28.10;5.03;;;10.20;99.90;;;;;;5089127;28;20406;-90
2024/01/23 11:18:33;;;;;;;29.05;4.80;;;10.20;99.90;;;;;;5071854;28;20850;-90
2024/01/23 11:21:08;;;;;;;25.52;4.32;;;10.30;99.90;;;;;;5072549;28;20460;-92
2024/01/23 11:23:57;;;;;;;29.05;5.55;;;10.20;99.90;;;;;;5088475;28;20410;-88
2024/01/23 11:26:26;;;;;;;26.60;4.50;;;10.40;99.90;;;;;;5071309;28;20536;-89
2024/01/23 11:29:00;;;;;;;29.75;5.32;;;10.30;99.90;;;;;;5072174;28;20406;-90
2024/01/23 11:31:28;;;;;;;27.15;5.20;;;10.20;99.90;;;;;;5071583;28;20497;-89
2024/01/23 11:34:22;;;;;;;27.13;4.40;;;10.30;99.90;;;;;;5072108;28;20845;-90
2024/01/23 11:36:48;;;;;;;27.50;4.65;;;10.20;99.90;;;;;;5071885;28;20398;-91
2024/01/23 11:39:27;;;;;;;30.27;4.88;;;10.00;99.90;;;;;;5071822;28;20463;-89
2024/01/23 11:41:55;;;;;;;29.50;4.65;;;9.80;99.90;;;;;;5089274;28;20421;-89
2024/01/23 11:44:21;;;;;;;29.07;5.07;;;9.60;99.90;;;;;;5071587;28;20485;-90
2024/01/23 11:46:48;;;;;;;27.80;4.88;;;9.40;99.90;;;;;;5072464;28;20517;-91
2024/01/23 11:49:16;;;;;;;25.00;4.50;;;9.40;99.90;;;;;;5088308;28;20402;-91
2024/01/23 11:51:42;;;;;;;28.60;5.47;;;9.50;99.90;;;;;;5072152;28;20434;-91
2024/01/23 11:54:10;;;;;;;27.90;4.97;;;8.90;99.90;;;;;;5072093;28;20398;-91
2024/01/23 11:56:36;;;;;;;31.25;4.43;;;9.30;99.90;;;;;;5071490;28;20394;-90
2024/01/23 11:59:02;;;;;;;29.02;5.40;;;9.20;99.90;;;;;;5066860;28;20398;-90
2024/01/23 12:01:30;;;;;;;30.52;5.28;;;9.80;99.90;;;;;;5071059;28;20447;-91
2024/01/23 12:03:56;;;;;;;25.87;4.47;;;9.50;99.90;;;;;;5072264;28;20474;-90
2024/01/23 12:06:23;;;;;;;27.15;4.38;;;9.40;99.90;;;;;;5071509;28;20437;-89
2024/01/23 12:08:49;;;;;;;24.00;4.63;;;9.70;99.90;;;;;;5071948;28;20451;-90
2024/01/23 12:11:16;;;;;;;29.27;4.25;;;9.90;99.90;;;;;;5071576;28;20408;-90
2024/01/23 12:13:50;;;;;;;26.98;4.45;;;10.00;99.90;;;;;;5070701;28;20485;-90
2024/01/23 12:16:17;;;;;;;23.30;4.32;;;10.00;99.90;;;;;;5088321;28;21002;-88
2024/01/23 12:18:44;;;;;;;26.70;5.03;;;10.40;99.90;;;;;;5070809;28;20413;-90
2024/01/23 12:21:11;;;;;;;26.27;4.90;;;10.40;99.90;;;;;;5071735;28;20873;-89
2024/01/23 12:23:37;;;;;;;28.17;4.45;;;10.50;99.90;;;;;;5070824;28;20438;-89
2024/01/23 12:26:04;;;;;;;27.02;4.97;;;10.40;99.90;;;;;;5071047;28;20461;-90
2024/01/23 12:28:32;;;;;;;27.48;4.78;;;10.40;99.90;;;;;;5071194;28;20390;-91
2024/01/23 12:30:58;;;;;;;28.33;4.80;;;10.20;99.90;;;;;;5070565;28;20394;-91
2024/01/23 12:33:25;;;;;;;25.73;4.57;;;10.10;99.90;;;;;;5071183;28;20441;-89
2024/01/23 12:35:51;;;;;;;25.30;4.28;;;10.00;99.90;;;;;;5070556;28;20455;-90
2024/01/23 12:38:19;;;;;;;26.00;4.15;;;10.20;99.90;;;;;;5071334;28;20522;-88
2024/01/23 12:40:45;;;;;;;27.92;4.55;;;9.80;99.90;;;;;;5071028;28;20460;-90
2024/01/23 12:43:11;;;;;;;30.67;4.90;;;9.60;99.90;;;;;;5087579;28;20409;-89